sensor_id;sensor_type;location;lat;lon;timestamp;temperature;humidity
36450;DHT22;22475;51.390;7.180;2023-02-26T00:02:13;10.10;82.90
36450;DHT22;22475;51.390;7.180;2023-02-26T00:04:40;10.10;82.80
36450;DHT22;22475;51.390;7.180;2023-02-26T00:07:08;10.10;82.70
36450;DHT22;22475;51.390;7.180;2023-02-26T00:09:35;10.10;82.90
36450;DHT22;22475;51.390;7.180;2023-02-26T00:12:03;10.10;83.00
36450;DHT22;22475;51.390;7.180;2023-02-26T00:14:30;10.10;83.30
36450;DHT22;22475;51.390;7.180;2023-02-26T00:17:12;10.10;83.40
36450;DHT22;22475;51.390;7.180;2023-02-26T00:19:43;10.10;83.50
36450;DHT22;22475;51.390;7.180;2023-02-26T00:22:11;10.10;83.70
36450;DHT22;22475;51.390;7.180;2023-02-26T00:24:38;10.10;84.60
36450;DHT22;22475;51.390;7.180;2023-02-26T00:27:05;10.10;84.00
36450;DHT22;22475;51.390;7.180;2023-02-26T00:29:32;10.10;84.00
36450;DHT22;22475;51.390;7.180;2023-02-26T00:31:59;10.10;83.90
36450;DHT22;22475;51.390;7.180;2023-02-26T00:34:27;10.10;83.90
36450;DHT22;22475;51.390;7.180;2023-02-26T00:37:05;10.10;83.90
36450;DHT22;22475;51.390;7.180;2023-02-26T00:39:42;10.10;83.80
36450;DHT22;22475;51.390;7.180;2023-02-26T00:42:10;10.10;83.70
36450;DHT22;22475;51.390;7.180;2023-02-26T00:44:38;10.00;83.50
36450;DHT22;22475;51.390;7.180;2023-02-26T00:47:09;10.10;83.70
36450;DHT22;22475;51.390;7.180;2023-02-26T00:49:49;10.10;83.90
36450;DHT22;22475;51.390;7.180;2023-02-26T00:52:22;10.10;84.00
36450;DHT22;22475;51.390;7.180;2023-02-26T00:54:53;10.10;83.90
36450;DHT22;22475;51.390;7.180;2023-02-26T00:57:19;10.10;83.80
36450;DHT22;22475;51.390;7.180;2023-02-26T00:59:46;10.10;83.60
36450;DHT22;22475;51.390;7.180;2023-02-26T01:02:13;10.10;83.70
36450;DHT22;22475;51.390;7.180;2023-02-26T01:04:40;10.10;83.70
36450;DHT22;22475;51.390;7.180;2023-02-26T01:07:08;10.10;83.60
36450;DHT22;22475;51.390;7.180;2023-02-26T01:09:37;10.10;83.30
36450;DHT22;22475;51.390;7.180;2023-02-26T01:12:07;10.00;83.10
36450;DHT22;22475;51.390;7.180;2023-02-26T01:14:35;10.00;83.00
36450;DHT22;22475;51.390;7.180;2023-02-26T01:17:07;10.00;82.90
36450;DHT22;22475;51.390;7.180;2023-02-26T01:19:41;10.00;82.90
36450;DHT22;22475;51.390;7.180;2023-02-26T01:22:13;10.00;82.90
36450;DHT22;22475;51.390;7.180;2023-02-26T01:24:42;10.00;83.20
36450;DHT22;22475;51.390;7.180;2023-02-26T01:27:10;10.00;83.20
36450;DHT22;22475;51.390;7.180;2023-02-26T01:29:37;9.90;82.90
36450;DHT22;22475;51.390;7.180;2023-02-26T01:32:09;10.00;83.00
36450;DHT22;22475;51.390;7.180;2023-02-26T01:34:43;10.00;82.80
36450;DHT22;22475;51.390;7.180;2023-02-26T01:37:20;10.00;82.90
36450;DHT22;22475;51.390;7.180;2023-02-26T01:39:59;10.00;82.90
36450;DHT22;22475;51.390;7.180;2023-02-26T01:42:31;9.90;82.90
36450;DHT22;22475;51.390;7.180;2023-02-26T01:45:03;9.90;82.90
36450;DHT22;22475;51.390;7.180;2023-02-26T01:47:41;9.90;82.90
36450;DHT22;22475;51.390;7.180;2023-02-26T01:50:17;9.90;82.90
36450;DHT22;22475;51.390;7.180;2023-02-26T01:55:50;9.90;82.90
36450;DHT22;22475;51.390;7.180;2023-02-26T01:58:20;9.90;82.80
36450;DHT22;22475;51.390;7.180;2023-02-26T02:00:47;9.90;82.80
36450;DHT22;22475;51.390;7.180;2023-02-26T02:03:14;9.90;83.00
36450;DHT22;22475;51.390;7.180;2023-02-26T02:05:43;9.80;82.80
36450;DHT22;22475;51.390;7.180;2023-02-26T02:08:11;9.90;83.00
36450;DHT22;22475;51.390;7.180;2023-02-26T02:10:40;9.80;82.90
36450;DHT22;22475;51.390;7.180;2023-02-26T02:13:13;9.80;82.80
36450;DHT22;22475;51.390;7.180;2023-02-26T02:15:46;9.80;82.70
36450;DHT22;22475;51.390;7.180;2023-02-26T02:18:20;9.80;82.70
36450;DHT22;22475;51.390;7.180;2023-02-26T02:21:08;9.80;82.90
36450;DHT22;22475;51.390;7.180;2023-02-26T02:23:46;9.80;82.80
36450;DHT22;22475;51.390;7.180;2023-02-26T02:26:48;9.80;82.90
36450;DHT22;22475;51.390;7.180;2023-02-26T02:29:30;9.90;82.90
36450;DHT22;22475;51.390;7.180;2023-02-26T02:32:04;9.80;82.70
36450;DHT22;22475;51.390;7.180;2023-02-26T02:34:35;9.80;82.50
36450;DHT22;22475;51.390;7.180;2023-02-26T02:37:07;9.80;82.50
36450;DHT22;22475;51.390;7.180;2023-02-26T02:39:41;9.80;82.20
36450;DHT22;22475;51.390;7.180;2023-02-26T02:42:19;9.80;82.10
36450;DHT22;22475;51.390;7.180;2023-02-26T02:44:51;9.80;82.30
36450;DHT22;22475;51.390;7.180;2023-02-26T02:47:22;9.70;82.50
36450;DHT22;22475;51.390;7.180;2023-02-26T02:49:53;9.70;82.70
36450;DHT22;22475;51.390;7.180;2023-02-26T02:52:25;9.70;82.70
36450;DHT22;22475;51.390;7.180;2023-02-26T02:54:57;9.70;82.60
36450;DHT22;22475;51.390;7.180;2023-02-26T02:57:29;9.70;82.50
36450;DHT22;22475;51.390;7.180;2023-02-26T03:00:02;9.70;82.40
36450;DHT22;22475;51.390;7.180;2023-02-26T03:02:36;9.70;82.40
36450;DHT22;22475;51.390;7.180;2023-02-26T03:05:06;9.70;82.40
36450;DHT22;22475;51.390;7.180;2023-02-26T03:07:37;9.70;82.30
36450;DHT22;22475;51.390;7.180;2023-02-26T03:10:06;9.70;82.40
36450;DHT22;22475;51.390;7.180;2023-02-26T03:12:33;9.70;82.30
36450;DHT22;22475;51.390;7.180;2023-02-26T03:15:01;9.70;82.10
36450;DHT22;22475;51.390;7.180;2023-02-26T03:17:34;9.70;82.00
36450;DHT22;22475;51.390;7.180;2023-02-26T03:20:16;9.70;82.00
36450;DHT22;22475;51.390;7.180;2023-02-26T03:22:52;9.70;81.80
36450;DHT22;22475;51.390;7.180;2023-02-26T03:25:26;9.70;81.70
36450;DHT22;22475;51.390;7.180;2023-02-26T03:27:58;9.70;82.50
36450;DHT22;22475;51.390;7.180;2023-02-26T03:30:33;9.70;81.90
36450;DHT22;22475;51.390;7.180;2023-02-26T03:33:05;9.70;81.90
36450;DHT22;22475;51.390;7.180;2023-02-26T03:35:37;9.70;81.80
36450;DHT22;22475;51.390;7.180;2023-02-26T03:38:12;9.70;82.50
36450;DHT22;22475;51.390;7.180;2023-02-26T03:40:43;9.70;81.50
36450;DHT22;22475;51.390;7.180;2023-02-26T03:43:17;9.70;81.40
36450;DHT22;22475;51.390;7.180;2023-02-26T03:45:47;9.70;81.40
36450;DHT22;22475;51.390;7.180;2023-02-26T03:48:20;9.60;81.40
36450;DHT22;22475;51.390;7.180;2023-02-26T03:50:50;9.70;81.60
36450;DHT22;22475;51.390;7.180;2023-02-26T03:53:21;9.70;81.60
36450;DHT22;22475;51.390;7.180;2023-02-26T03:55:51;9.70;81.50
36450;DHT22;22475;51.390;7.180;2023-02-26T03:58:21;9.70;81.60
36450;DHT22;22475;51.390;7.180;2023-02-26T04:00:52;9.60;81.80
36450;DHT22;22475;51.390;7.180;2023-02-26T04:03:27;9.70;82.00
36450;DHT22;22475;51.390;7.180;2023-02-26T04:05:56;9.70;81.90
36450;DHT22;22475;51.390;7.180;2023-02-26T04:08:25;9.70;81.90
36450;DHT22;22475;51.390;7.180;2023-02-26T04:10:53;9.70;81.80
36450;DHT22;22475;51.390;7.180;2023-02-26T04:13:21;9.70;82.00
36450;DHT22;22475;51.390;7.180;2023-02-26T04:15:47;9.70;82.30
36450;DHT22;22475;51.390;7.180;2023-02-26T04:18:14;9.70;83.10
36450;DHT22;22475;51.390;7.180;2023-02-26T04:20:42;9.70;82.30
36450;DHT22;22475;51.390;7.180;2023-02-26T04:23:09;9.70;82.30
36450;DHT22;22475;51.390;7.180;2023-02-26T04:25:36;9.70;82.90
36450;DHT22;22475;51.390;7.180;2023-02-26T04:28:03;9.70;82.30
36450;DHT22;22475;51.390;7.180;2023-02-26T04:30:30;9.70;82.20
36450;DHT22;22475;51.390;7.180;2023-02-26T04:32:56;9.70;82.20
36450;DHT22;22475;51.390;7.180;2023-02-26T04:35:23;9.70;82.00
36450;DHT22;22475;51.390;7.180;2023-02-26T04:37:51;9.70;82.00
36450;DHT22;22475;51.390;7.180;2023-02-26T04:40:18;9.60;81.80
36450;DHT22;22475;51.390;7.180;2023-02-26T04:42:45;9.60;81.80
36450;DHT22;22475;51.390;7.180;2023-02-26T04:45:11;9.60;81.80
36450;DHT22;22475;51.390;7.180;2023-02-26T04:47:38;9.60;81.90
36450;DHT22;22475;51.390;7.180;2023-02-26T04:50:06;9.60;82.00
36450;DHT22;22475;51.390;7.180;2023-02-26T04:52:33;9.60;82.00
36450;DHT22;22475;51.390;7.180;2023-02-26T04:55:02;9.60;82.00
36450;DHT22;22475;51.390;7.180;2023-02-26T04:57:29;9.60;82.10
36450;DHT22;22475;51.390;7.180;2023-02-26T04:59:56;9.60;82.30
36450;DHT22;22475;51.390;7.180;2023-02-26T05:02:22;9.60;82.20
36450;DHT22;22475;51.390;7.180;2023-02-26T05:04:49;9.60;82.30
36450;DHT22;22475;51.390;7.180;2023-02-26T05:07:16;9.60;82.30
36450;DHT22;22475;51.390;7.180;2023-02-26T05:09:43;9.60;82.10
36450;DHT22;22475;51.390;7.180;2023-02-26T05:12:11;9.60;82.00
36450;DHT22;22475;51.390;7.180;2023-02-26T05:14:37;9.60;81.90
36450;DHT22;22475;51.390;7.180;2023-02-26T05:17:04;9.60;81.90
36450;DHT22;22475;51.390;7.180;2023-02-26T05:19:31;9.60;82.00
36450;DHT22;22475;51.390;7.180;2023-02-26T05:21:58;9.60;82.00
36450;DHT22;22475;51.390;7.180;2023-02-26T05:24:24;9.60;82.00
36450;DHT22;22475;51.390;7.180;2023-02-26T05:26:51;9.60;81.90
36450;DHT22;22475;51.390;7.180;2023-02-26T05:29:19;9.60;82.10
36450;DHT22;22475;51.390;7.180;2023-02-26T05:31:46;9.60;82.20
36450;DHT22;22475;51.390;7.180;2023-02-26T05:34:13;9.60;82.40
36450;DHT22;22475;51.390;7.180;2023-02-26T05:36:40;9.60;82.40
36450;DHT22;22475;51.390;7.180;2023-02-26T05:39:07;9.50;82.20
36450;DHT22;22475;51.390;7.180;2023-02-26T05:41:34;9.50;82.20
36450;DHT22;22475;51.390;7.180;2023-02-26T05:44:01;9.60;82.20
36450;DHT22;22475;51.390;7.180;2023-02-26T05:46:29;9.50;82.10
36450;DHT22;22475;51.390;7.180;2023-02-26T05:48:56;9.50;82.20
36450;DHT22;22475;51.390;7.180;2023-02-26T05:51:22;9.60;82.30
36450;DHT22;22475;51.390;7.180;2023-02-26T05:53:49;9.50;82.10
36450;DHT22;22475;51.390;7.180;2023-02-26T05:56:16;9.50;82.20
36450;DHT22;22475;51.390;7.180;2023-02-26T05:58:43;9.50;82.40
36450;DHT22;22475;51.390;7.180;2023-02-26T06:01:09;9.50;82.50
36450;DHT22;22475;51.390;7.180;2023-02-26T06:03:37;9.50;82.50
36450;DHT22;22475;51.390;7.180;2023-02-26T06:06:08;9.50;82.40
36450;DHT22;22475;51.390;7.180;2023-02-26T06:08:35;9.50;82.30
36450;DHT22;22475;51.390;7.180;2023-02-26T06:11:02;9.50;82.20
36450;DHT22;22475;51.390;7.180;2023-02-26T06:13:29;9.50;82.10
36450;DHT22;22475;51.390;7.180;2023-02-26T06:15:56;9.50;82.20
36450;DHT22;22475;51.390;7.180;2023-02-26T06:18:23;9.50;82.30
36450;DHT22;22475;51.390;7.180;2023-02-26T06:20:51;9.50;82.20
36450;DHT22;22475;51.390;7.180;2023-02-26T06:23:18;9.50;82.10
36450;DHT22;22475;51.390;7.180;2023-02-26T06:25:44;9.50;82.10
36450;DHT22;22475;51.390;7.180;2023-02-26T06:28:11;9.50;82.20
36450;DHT22;22475;51.390;7.180;2023-02-26T06:30:38;9.50;82.10
36450;DHT22;22475;51.390;7.180;2023-02-26T06:33:05;9.50;82.00
36450;DHT22;22475;51.390;7.180;2023-02-26T06:35:32;9.50;82.00
36450;DHT22;22475;51.390;7.180;2023-02-26T06:38:00;9.50;82.00
36450;DHT22;22475;51.390;7.180;2023-02-26T06:40:27;9.50;82.00
36450;DHT22;22475;51.390;7.180;2023-02-26T06:42:55;9.50;82.00
36450;DHT22;22475;51.390;7.180;2023-02-26T06:45:22;9.50;82.00
36450;DHT22;22475;51.390;7.180;2023-02-26T06:47:49;9.50;82.10
36450;DHT22;22475;51.390;7.180;2023-02-26T06:50:16;9.40;82.00
36450;DHT22;22475;51.390;7.180;2023-02-26T06:52:43;9.40;82.00
36450;DHT22;22475;51.390;7.180;2023-02-26T06:55:12;9.40;81.70
36450;DHT22;22475;51.390;7.180;2023-02-26T06:57:38;9.40;81.80
36450;DHT22;22475;51.390;7.180;2023-02-26T07:00:07;9.40;81.70
36450;DHT22;22475;51.390;7.180;2023-02-26T07:02:34;9.40;81.70
36450;DHT22;22475;51.390;7.180;2023-02-26T07:05:00;9.40;81.70
36450;DHT22;22475;51.390;7.180;2023-02-26T07:07:27;9.40;81.60
36450;DHT22;22475;51.390;7.180;2023-02-26T07:09:54;9.40;81.50
36450;DHT22;22475;51.390;7.180;2023-02-26T07:12:22;9.40;81.30
36450;DHT22;22475;51.390;7.180;2023-02-26T07:14:49;9.40;81.30
36450;DHT22;22475;51.390;7.180;2023-02-26T07:17:16;9.40;81.60
36450;DHT22;22475;51.390;7.180;2023-02-26T07:19:45;9.40;81.60
36450;DHT22;22475;51.390;7.180;2023-02-26T07:22:12;9.30;81.50
36450;DHT22;22475;51.390;7.180;2023-02-26T07:24:39;9.40;81.70
36450;DHT22;22475;51.390;7.180;2023-02-26T07:27:06;9.40;81.70
36450;DHT22;22475;51.390;7.180;2023-02-26T07:29:34;9.40;81.60
36450;DHT22;22475;51.390;7.180;2023-02-26T07:32:02;9.30;81.40
36450;DHT22;22475;51.390;7.180;2023-02-26T07:34:29;9.30;81.30
36450;DHT22;22475;51.390;7.180;2023-02-26T07:36:55;9.30;81.20
36450;DHT22;22475;51.390;7.180;2023-02-26T07:39:23;9.30;81.20
36450;DHT22;22475;51.390;7.180;2023-02-26T07:41:51;9.30;81.30
36450;DHT22;22475;51.390;7.180;2023-02-26T07:44:17;9.30;81.30
36450;DHT22;22475;51.390;7.180;2023-02-26T07:46:46;9.30;81.30
36450;DHT22;22475;51.390;7.180;2023-02-26T07:49:12;9.30;81.20
36450;DHT22;22475;51.390;7.180;2023-02-26T07:51:39;9.30;81.10
36450;DHT22;22475;51.390;7.180;2023-02-26T07:54:10;9.30;81.00
36450;DHT22;22475;51.390;7.180;2023-02-26T07:56:37;9.30;81.00
36450;DHT22;22475;51.390;7.180;2023-02-26T07:59:04;9.30;81.00
36450;DHT22;22475;51.390;7.180;2023-02-26T08:01:31;9.30;81.10
36450;DHT22;22475;51.390;7.180;2023-02-26T08:03:59;9.30;81.10
36450;DHT22;22475;51.390;7.180;2023-02-26T08:06:26;9.30;81.10
36450;DHT22;22475;51.390;7.180;2023-02-26T08:08:52;9.30;81.10
36450;DHT22;22475;51.390;7.180;2023-02-26T08:11:19;9.30;81.10
36450;DHT22;22475;51.390;7.180;2023-02-26T08:13:46;9.30;81.20
36450;DHT22;22475;51.390;7.180;2023-02-26T08:16:13;9.30;81.20
36450;DHT22;22475;51.390;7.180;2023-02-26T08:18:39;9.30;81.40
36450;DHT22;22475;51.390;7.180;2023-02-26T08:21:07;9.30;81.50
36450;DHT22;22475;51.390;7.180;2023-02-26T08:23:35;9.30;81.60
36450;DHT22;22475;51.390;7.180;2023-02-26T08:26:03;9.30;81.70
36450;DHT22;22475;51.390;7.180;2023-02-26T08:28:30;9.30;81.60
36450;DHT22;22475;51.390;7.180;2023-02-26T08:30:58;9.30;81.70
36450;DHT22;22475;51.390;7.180;2023-02-26T08:33:25;9.30;82.00
36450;DHT22;22475;51.390;7.180;2023-02-26T08:35:52;9.30;82.10
36450;DHT22;22475;51.390;7.180;2023-02-26T08:38:21;9.40;82.20
36450;DHT22;22475;51.390;7.180;2023-02-26T08:40:48;9.40;82.20
36450;DHT22;22475;51.390;7.180;2023-02-26T08:43:17;9.40;82.40
36450;DHT22;22475;51.390;7.180;2023-02-26T08:45:44;9.40;82.50
36450;DHT22;22475;51.390;7.180;2023-02-26T08:48:11;9.40;82.50
36450;DHT22;22475;51.390;7.180;2023-02-26T08:50:37;9.40;82.60
36450;DHT22;22475;51.390;7.180;2023-02-26T08:53:05;9.40;82.60
36450;DHT22;22475;51.390;7.180;2023-02-26T08:55:33;9.40;82.40
36450;DHT22;22475;51.390;7.180;2023-02-26T08:57:59;9.30;82.30
36450;DHT22;22475;51.390;7.180;2023-02-26T09:00:26;9.40;82.50
36450;DHT22;22475;51.390;7.180;2023-02-26T09:02:54;9.40;82.40
36450;DHT22;22475;51.390;7.180;2023-02-26T09:05:21;9.40;82.20
36450;DHT22;22475;51.390;7.180;2023-02-26T09:07:48;9.40;82.10
36450;DHT22;22475;51.390;7.180;2023-02-26T09:10:15;9.40;82.20
36450;DHT22;22475;51.390;7.180;2023-02-26T09:12:43;9.50;82.50
36450;DHT22;22475;51.390;7.180;2023-02-26T09:15:12;9.40;82.50
36450;DHT22;22475;51.390;7.180;2023-02-26T09:17:39;9.40;82.50
36450;DHT22;22475;51.390;7.180;2023-02-26T09:20:07;9.40;82.40
36450;DHT22;22475;51.390;7.180;2023-02-26T09:22:34;9.40;82.40
36450;DHT22;22475;51.390;7.180;2023-02-26T09:25:02;9.40;82.40
36450;DHT22;22475;51.390;7.180;2023-02-26T09:27:29;9.40;82.10
36450;DHT22;22475;51.390;7.180;2023-02-26T09:29:57;9.50;82.10
36450;DHT22;22475;51.390;7.180;2023-02-26T09:32:24;9.40;82.20
36450;DHT22;22475;51.390;7.180;2023-02-26T09:34:51;9.40;82.40
36450;DHT22;22475;51.390;7.180;2023-02-26T09:37:18;9.50;82.30
36450;DHT22;22475;51.390;7.180;2023-02-26T09:39:45;9.40;82.20
36450;DHT22;22475;51.390;7.180;2023-02-26T09:42:34;9.50;82.20
36450;DHT22;22475;51.390;7.180;2023-02-26T09:45:06;9.50;82.40
36450;DHT22;22475;51.390;7.180;2023-02-26T09:47:39;9.40;82.40
36450;DHT22;22475;51.390;7.180;2023-02-26T09:50:13;9.40;82.20
36450;DHT22;22475;51.390;7.180;2023-02-26T09:52:45;9.50;82.40
36450;DHT22;22475;51.390;7.180;2023-02-26T09:55:16;9.50;83.20
36450;DHT22;22475;51.390;7.180;2023-02-26T09:57:46;9.50;82.40
36450;DHT22;22475;51.390;7.180;2023-02-26T10:00:22;9.50;82.30
36450;DHT22;22475;51.390;7.180;2023-02-26T10:02:57;9.50;82.10
36450;DHT22;22475;51.390;7.180;2023-02-26T10:05:32;9.50;82.00
36450;DHT22;22475;51.390;7.180;2023-02-26T10:08:07;9.50;81.80
36450;DHT22;22475;51.390;7.180;2023-02-26T10:10:41;9.50;81.60
36450;DHT22;22475;51.390;7.180;2023-02-26T10:13:22;9.50;81.60
36450;DHT22;22475;51.390;7.180;2023-02-26T10:15:52;9.50;81.60
36450;DHT22;22475;51.390;7.180;2023-02-26T10:18:23;9.50;81.90
36450;DHT22;22475;51.390;7.180;2023-02-26T10:20:54;9.50;82.00
36450;DHT22;22475;51.390;7.180;2023-02-26T10:23:27;9.50;81.90
36450;DHT22;22475;51.390;7.180;2023-02-26T10:26:02;9.50;81.80
36450;DHT22;22475;51.390;7.180;2023-02-26T10:28:49;9.50;81.70
36450;DHT22;22475;51.390;7.180;2023-02-26T10:31:25;9.50;81.60
36450;DHT22;22475;51.390;7.180;2023-02-26T10:33:59;9.50;81.70
36450;DHT22;22475;51.390;7.180;2023-02-26T10:36:29;9.50;81.70
36450;DHT22;22475;51.390;7.180;2023-02-26T10:39:11;9.50;81.50
36450;DHT22;22475;51.390;7.180;2023-02-26T10:41:41;9.60;81.20
36450;DHT22;22475;51.390;7.180;2023-02-26T10:44:14;9.60;80.90
36450;DHT22;22475;51.390;7.180;2023-02-26T10:46:50;9.50;80.70
36450;DHT22;22475;51.390;7.180;2023-02-26T10:49:32;9.60;80.90
36450;DHT22;22475;51.390;7.180;2023-02-26T10:52:11;9.50;80.80
36450;DHT22;22475;51.390;7.180;2023-02-26T10:54:46;9.50;80.60
36450;DHT22;22475;51.390;7.180;2023-02-26T10:57:19;9.50;80.50
36450;DHT22;22475;51.390;7.180;2023-02-26T10:59:48;9.50;80.30
36450;DHT22;22475;51.390;7.180;2023-02-26T11:02:31;9.50;80.30
36450;DHT22;22475;51.390;7.180;2023-02-26T11:04:59;9.50;80.50
36450;DHT22;22475;51.390;7.180;2023-02-26T11:07:28;9.60;80.70
36450;DHT22;22475;51.390;7.180;2023-02-26T11:09:56;9.60;80.90
36450;DHT22;22475;51.390;7.180;2023-02-26T11:12:24;9.60;80.90
36450;DHT22;22475;51.390;7.180;2023-02-26T11:14:52;9.60;80.90
36450;DHT22;22475;51.390;7.180;2023-02-26T11:17:22;9.60;81.00
36450;DHT22;22475;51.390;7.180;2023-02-26T11:19:55;9.60;80.70
36450;DHT22;22475;51.390;7.180;2023-02-26T11:22:24;9.60;80.60
36450;DHT22;22475;51.390;7.180;2023-02-26T11:24:51;9.70;80.70
36450;DHT22;22475;51.390;7.180;2023-02-26T11:27:20;9.60;80.70
36450;DHT22;22475;51.390;7.180;2023-02-26T11:29:53;9.70;80.50
36450;DHT22;22475;51.390;7.180;2023-02-26T11:32:32;9.70;80.20
36450;DHT22;22475;51.390;7.180;2023-02-26T11:34:59;9.60;80.00
36450;DHT22;22475;51.390;7.180;2023-02-26T11:37:29;9.70;80.00
36450;DHT22;22475;51.390;7.180;2023-02-26T11:40:02;9.70;79.90
36450;DHT22;22475;51.390;7.180;2023-02-26T11:42:34;9.60;79.80
36450;DHT22;22475;51.390;7.180;2023-02-26T11:45:04;9.60;79.70
36450;DHT22;22475;51.390;7.180;2023-02-26T11:47:33;9.70;79.80
36450;DHT22;22475;51.390;7.180;2023-02-26T11:50:03;9.60;79.60
36450;DHT22;22475;51.390;7.180;2023-02-26T11:52:33;9.60;79.70
36450;DHT22;22475;51.390;7.180;2023-02-26T11:55:02;9.60;79.90
36450;DHT22;22475;51.390;7.180;2023-02-26T11:57:31;9.70;79.80
36450;DHT22;22475;51.390;7.180;2023-02-26T11:59:59;9.70;79.90
36450;DHT22;22475;51.390;7.180;2023-02-26T12:02:31;9.60;79.80
36450;DHT22;22475;51.390;7.180;2023-02-26T12:05:02;9.70;79.80
36450;DHT22;22475;51.390;7.180;2023-02-26T12:07:31;9.70;79.80
36450;DHT22;22475;51.390;7.180;2023-02-26T12:09:58;9.70;79.70
36450;DHT22;22475;51.390;7.180;2023-02-26T12:12:33;9.70;79.60
36450;DHT22;22475;51.390;7.180;2023-02-26T12:15:15;9.70;79.30
36450;DHT22;22475;51.390;7.180;2023-02-26T12:20:42;9.70;79.10
36450;DHT22;22475;51.390;7.180;2023-02-26T12:23:29;9.70;79.20
36450;DHT22;22475;51.390;7.180;2023-02-26T12:26:18;9.70;79.50
36450;DHT22;22475;51.390;7.180;2023-02-26T12:31:45;9.60;79.30
36450;DHT22;22475;51.390;7.180;2023-02-26T12:34:23;9.70;79.30
36450;DHT22;22475;51.390;7.180;2023-02-26T12:37:08;9.60;79.20
36450;DHT22;22475;51.390;7.180;2023-02-26T12:39:50;9.60;78.90
36450;DHT22;22475;51.390;7.180;2023-02-26T12:42:30;9.60;78.70
36450;DHT22;22475;51.390;7.180;2023-02-26T12:45:23;9.60;78.90
36450;DHT22;22475;51.390;7.180;2023-02-26T12:48:02;9.60;79.00
36450;DHT22;22475;51.390;7.180;2023-02-26T12:50:47;9.60;79.10
36450;DHT22;22475;51.390;7.180;2023-02-26T12:53:36;9.60;78.90
36450;DHT22;22475;51.390;7.180;2023-02-26T12:59:08;9.60;78.70
36450;DHT22;22475;51.390;7.180;2023-02-26T13:01:45;9.60;78.70
36450;DHT22;22475;51.390;7.180;2023-02-26T13:04:40;9.60;79.10
36450;DHT22;22475;51.390;7.180;2023-02-26T13:10:21;9.60;78.90
36450;DHT22;22475;51.390;7.180;2023-02-26T13:13:00;9.60;78.80
36450;DHT22;22475;51.390;7.180;2023-02-26T13:15:53;9.60;78.70
36450;DHT22;22475;51.390;7.180;2023-02-26T13:18:30;9.60;78.70
36450;DHT22;22475;51.390;7.180;2023-02-26T13:21:04;9.60;78.70
36450;DHT22;22475;51.390;7.180;2023-02-26T13:23:39;9.60;78.70
36450;DHT22;22475;51.390;7.180;2023-02-26T13:26:10;9.70;78.70
36450;DHT22;22475;51.390;7.180;2023-02-26T13:28:42;9.70;78.50
36450;DHT22;22475;51.390;7.180;2023-02-26T13:31:14;9.70;78.20
36450;DHT22;22475;51.390;7.180;2023-02-26T13:33:42;9.70;78.30
36450;DHT22;22475;51.390;7.180;2023-02-26T13:36:10;9.60;78.70
36450;DHT22;22475;51.390;7.180;2023-02-26T13:38:48;9.70;78.80
36450;DHT22;22475;51.390;7.180;2023-02-26T13:41:24;9.70;78.80
36450;DHT22;22475;51.390;7.180;2023-02-26T13:46:55;9.70;78.40
36450;DHT22;22475;51.390;7.180;2023-02-26T13:49:32;9.70;78.20
36450;DHT22;22475;51.390;7.180;2023-02-26T13:52:01;9.70;78.20
36450;DHT22;22475;51.390;7.180;2023-02-26T13:54:41;9.70;78.40
36450;DHT22;22475;51.390;7.180;2023-02-26T13:57:33;9.70;78.20
36450;DHT22;22475;51.390;7.180;2023-02-26T14:00:07;9.70;78.20
36450;DHT22;22475;51.390;7.180;2023-02-26T14:02:46;9.80;78.30
36450;DHT22;22475;51.390;7.180;2023-02-26T14:05:52;9.80;78.40
36450;DHT22;22475;51.390;7.180;2023-02-26T14:08:44;9.80;78.50
36450;DHT22;22475;51.390;7.180;2023-02-26T14:14:25;9.80;78.10
36450;DHT22;22475;51.390;7.180;2023-02-26T14:17:29;9.80;78.00
36450;DHT22;22475;51.390;7.180;2023-02-26T14:20:18;9.80;77.80
36450;DHT22;22475;51.390;7.180;2023-02-26T14:22:48;9.80;77.60
36450;DHT22;22475;51.390;7.180;2023-02-26T14:25:19;9.80;77.70
36450;DHT22;22475;51.390;7.180;2023-02-26T14:27:47;9.80;78.30
36450;DHT22;22475;51.390;7.180;2023-02-26T14:30:18;9.80;78.80
36450;DHT22;22475;51.390;7.180;2023-02-26T14:32:49;9.90;78.80
36450;DHT22;22475;51.390;7.180;2023-02-26T14:35:22;9.80;78.90
36450;DHT22;22475;51.390;7.180;2023-02-26T14:37:56;9.90;79.30
36450;DHT22;22475;51.390;7.180;2023-02-26T14:40:24;9.90;78.90
36450;DHT22;22475;51.390;7.180;2023-02-26T14:42:53;9.90;78.80
36450;DHT22;22475;51.390;7.180;2023-02-26T14:45:28;9.90;78.30
36450;DHT22;22475;51.390;7.180;2023-02-26T14:47:58;9.90;78.10
36450;DHT22;22475;51.390;7.180;2023-02-26T14:50:30;9.90;78.10
36450;DHT22;22475;51.390;7.180;2023-02-26T14:53:23;9.90;78.10
36450;DHT22;22475;51.390;7.180;2023-02-26T14:55:59;9.80;77.90
36450;DHT22;22475;51.390;7.180;2023-02-26T14:58:51;9.80;77.80
36450;DHT22;22475;51.390;7.180;2023-02-26T15:01:38;9.90;77.80
36450;DHT22;22475;51.390;7.180;2023-02-26T15:04:22;9.90;77.90
36450;DHT22;22475;51.390;7.180;2023-02-26T15:07:02;9.90;77.90
36450;DHT22;22475;51.390;7.180;2023-02-26T15:09:41;9.90;77.70
36450;DHT22;22475;51.390;7.180;2023-02-26T15:12:31;9.90;77.50
36450;DHT22;22475;51.390;7.180;2023-02-26T15:15:17;9.80;77.50
36450;DHT22;22475;51.390;7.180;2023-02-26T15:18:01;9.80;77.40
36450;DHT22;22475;51.390;7.180;2023-02-26T15:20:39;9.80;77.30
36450;DHT22;22475;51.390;7.180;2023-02-26T15:23:20;9.80;77.10
36450;DHT22;22475;51.390;7.180;2023-02-26T15:25:50;9.80;77.00
36450;DHT22;22475;51.390;7.180;2023-02-26T15:28:23;9.80;77.00
36450;DHT22;22475;51.390;7.180;2023-02-26T15:30:51;9.80;76.80
36450;DHT22;22475;51.390;7.180;2023-02-26T15:33:19;9.80;76.80
36450;DHT22;22475;51.390;7.180;2023-02-26T15:35:49;9.80;76.80
36450;DHT22;22475;51.390;7.180;2023-02-26T15:38:17;9.80;76.80
36450;DHT22;22475;51.390;7.180;2023-02-26T15:40:44;9.80;76.80
36450;DHT22;22475;51.390;7.180;2023-02-26T15:43:19;9.80;76.70
36450;DHT22;22475;51.390;7.180;2023-02-26T15:45:48;9.80;76.70
36450;DHT22;22475;51.390;7.180;2023-02-26T15:48:19;9.80;76.80
36450;DHT22;22475;51.390;7.180;2023-02-26T15:50:53;9.80;77.00
36450;DHT22;22475;51.390;7.180;2023-02-26T15:53:27;9.80;76.80
36450;DHT22;22475;51.390;7.180;2023-02-26T15:55:56;9.80;77.00
36450;DHT22;22475;51.390;7.180;2023-02-26T15:58:33;9.80;77.50
36450;DHT22;22475;51.390;7.180;2023-02-26T16:01:02;9.80;77.80
36450;DHT22;22475;51.390;7.180;2023-02-26T16:03:31;9.80;77.70
36450;DHT22;22475;51.390;7.180;2023-02-26T16:05:59;9.80;77.70
36450;DHT22;22475;51.390;7.180;2023-02-26T16:08:26;9.80;77.80
36450;DHT22;22475;51.390;7.180;2023-02-26T16:10:55;9.80;77.70
36450;DHT22;22475;51.390;7.180;2023-02-26T16:13:27;9.80;77.50
36450;DHT22;22475;51.390;7.180;2023-02-26T16:15:58;9.80;77.20
36450;DHT22;22475;51.390;7.180;2023-02-26T16:18:26;9.80;77.30
36450;DHT22;22475;51.390;7.180;2023-02-26T16:20:55;9.80;77.70
36450;DHT22;22475;51.390;7.180;2023-02-26T16:23:30;9.80;78.30
36450;DHT22;22475;51.390;7.180;2023-02-26T16:26:02;9.80;78.20
36450;DHT22;22475;51.390;7.180;2023-02-26T16:28:31;9.80;78.00
36450;DHT22;22475;51.390;7.180;2023-02-26T16:31:02;9.80;78.00
36450;DHT22;22475;51.390;7.180;2023-02-26T16:33:32;9.80;78.30